Chadbourn, North Carolina
Current Conditions -  °F | °C
As of 11:15 AM on Tuesday 21 Oct 2014 (Local Time) from KCPC Reporting Station
Clear Clear  
Wind Chill: 71°   Ceiling: Unl
Heat Index: 71°   Visibility: 10mi
Dew Point: 54°   Wind: 3mph
Humidity: 55%   Direction: 270°W
Pressure: 29.93"   Gusts: NA
Location:  34.32°N, 78.83°W
Report Text: KCPC 211515Z AUTO 27003KT 10SM CLR 22/12 A2993 RMK AO2 T02170123
Loading
Personal Weather Stations






























Interactive Weather Map
Tropical Storm Tracking
New forecast layout! Learn more

10-Day Weather Forecast

Advertisements
Track Severe Weather on mobile